ADDS METAR Data INFO
IDs: Format: Raw Decoded Include TAF

Data at: 2241 UTC 11 Dec 2017

KAEL 112224Z AUTO 35017G26KT 10SM OVC021 01/M04 A2996 RMK AO2
KAEL 111602Z AUTO 29005KT 10SM BKN035 OVC060 01/M01 A2973 RMK AO2
KAEL 111539Z AUTO 29004KT 10SM SCT014 BKN022 OVC031 01/M01 A2972 RMK AO2
KAEL 111519Z AUTO 27005KT 4SM -SN BKN016 OVC025 01/M01 A2972 RMK AO2
KAEL 111459Z AUTO 28003KT 3SM -SN SCT014 SCT022 OVC026 00/M02 A2971 RMK AO
KAEL 111439Z AUTO 00000KT 4SM UP SCT020 BKN026 OVC032 00/M03 A2971 RMK AO2
KAEL 111420Z AUTO 24003KT 5SM -SN SCT026 BKN038 OVC060 00/M03 A2972 RMK AO
KAEL 111359Z AUTO 00000KT 7SM -SN SCT016 SCT039 OVC050 M01/M03 A2971 RMK
KAEL 111339Z AUTO 27004KT 4SM -SN SCT018 BKN041 OVC055 00/M04 A2973 RMK AO
KAEL 111321Z AUTO 27003KT 10SM SCT044 OVC055 00/M04 A2973 RMK AO2
KAEL 111305Z AUTO 22005KT 10SM BKN055 OVC085 00/M04 A2971 RMK AO2
KAEL 111239Z AUTO 20005KT 10SM SCT085 OVC120 00/M04 A2972 RMK AO2
KAEL 111219Z AUTO 20004KT 10SM SCT110 M01/M04 A2973 RMK AO2
KAEL 111159Z AUTO 21003KT 10SM SCT110 M01/M04 A2974 RMK AO2
KAEL 111139Z AUTO 21003KT 10SM CLR M01/M04 A2975 RMK AO2
KAEL 111124Z AUTO 22003KT 10SM CLR 00/M04 A2975 RMK AO2
KAEL 111059Z AUTO 21004KT 10SM CLR M01/M04 A2977 RMK AO2
KAEL 111039Z AUTO 19004KT 10SM CLR M01/M04 A2977 RMK AO2
KAEL 111019Z AUTO 20006KT 10SM CLR 00/M04 A2979 RMK AO2
KAEL 110959Z AUTO 19006KT 10SM CLR M01/M04 A2980 RMK AO2
KAEL 110939Z AUTO 19007KT 10SM CLR M01/M04 A2981 RMK AO2
KAEL 110919Z AUTO 20007KT 10SM CLR M01/M05 A2983 RMK AO2
KAEL 110859Z AUTO 19007KT 10SM SCT120 M01/M05 A2985 RMK AO2
KAEL 110839Z AUTO 20007KT 10SM SCT120 M01/M05 A2987 RMK AO2
KAEL 110822Z AUTO 19006KT 10SM SCT110 M01/M05 A2988 RMK AO2
KAEL 110759Z AUTO 18006KT 10SM SCT060 M01/M05 A2987 RMK AO2
KAEL 110739Z AUTO 20004KT 10SM SCT060 BKN080 BKN095 M01/M05 A2988 RMK AO2
KAEL 110719Z AUTO 17009KT 10SM SCT060 BKN080 OVC095 M02/M05 A2987 RMK AO2
KAEL 110659Z AUTO 18006KT 10SM OVC080 M02/M05 A2990 RMK AO2
KAEL 110639Z AUTO 18006KT 10SM OVC100 M02/M05 A2992 RMK AO2
KAEL 110619Z AUTO 19005KT 10SM OVC100 M02/M05 A2994 RMK AO2
KAEL 110559Z AUTO 18006KT 10SM SCT046 BKN065 OVC100 M02/M05 A2994 RMK AO2
KAEL 110539Z AUTO 18004KT 10SM SCT048 BKN055 OVC090 M02/M05 A2996 RMK AO2
KAEL 110523Z AUTO 18003KT 10SM SCT065 BKN070 OVC090 M02/M05 A2997 RMK AO2
KAEL 110459Z AUTO 18003KT 10SM OVC080 M02/M05 A2997 RMK AO2
KAEL 110439Z AUTO 15004KT 10SM OVC080 M02/M05 A2997 RMK AO2
KAEL 110419Z AUTO 15005KT 10SM BKN080 OVC120 M03/M05 A2997 RMK AO2
KAEL 110359Z AUTO 17003KT 10SM OVC080 M03/M05 A2998 RMK AO2
KAEL 110339Z AUTO 18004KT 10SM OVC080 M03/M05 A2999 RMK AO2
KAEL 110319Z AUTO 17004KT 10SM OVC090 M03/M05 A2999 RMK AO2
KAEL 110259Z AUTO 18003KT 10SM OVC090 M03/M06 A3001 RMK AO2
KAEL 110239Z AUTO 00000KT 10SM OVC090 M03/M06 A3002 RMK AO2
KAEL 110219Z AUTO 00000KT 10SM OVC090 M03/M06 A3003 RMK AO2
KAEL 110159Z AUTO 00000KT 10SM OVC090 M03/M06 A3004 RMK AO2
KAEL 110139Z AUTO 00000KT 10SM OVC100 M03/M06 A3004 RMK AO2
KAEL 110120Z AUTO 00000KT 10SM OVC100 M03/M06 A3005 RMK AO2
KAEL 110100Z AUTO 00000KT 10SM OVC100 M03/M06 A3006 RMK AO2
KAEL 110039Z AUTO 00000KT 10SM OVC110 M03/M06 A3005 RMK AO2
KAEL 110019Z AUTO 00000KT 10SM OVC110 M03/M06 A3005 RMK AO2
KAEL 102359Z AUTO 00000KT 10SM OVC110 M03/M06 A3006 RMK AO2
KAEL 102339Z AUTO 00000KT 10SM OVC120 M03/M06 A3005 RMK AO2
KAEL 102319Z AUTO 00000KT 10SM BKN120 M03/M06 A3005 RMK AO2
KAEL 102259Z AUTO 00000KT 10SM SCT080 OVC120 M03/M06 A3005 RMK AO2
KAEL 102239Z AUTO 34003KT 10SM SCT120 M03/M06 A3005 RMK AO2
KAEL 102219Z AUTO 34003KT 10SM SCT120 M02/M06 A3003 RMK AO2
KAEL 102159Z AUTO 34004KT 10SM SCT016 OVC120 M02/M06 A3002 RMK AO2
KAEL 102139Z AUTO 32007KT 10SM SCT016 OVC120 M01/M06 A3002 RMK AO2
KAEL 102119Z AUTO 32005KT 10SM BKN016 M02/M06 A3001 RMK AO2
KAEL 102059Z AUTO 34008KT 10SM OVC016 M02/M06 A3003 RMK AO2
KAEL 102039Z AUTO 31006KT 10SM OVC016 M02/M06 A3001 RMK AO2
KAEL 102019Z AUTO 30006KT 10SM OVC016 M01/M06 A3000 RMK AO2
KAEL 101959Z AUTO 32006KT 10SM OVC016 M01/M06 A3000 RMK AO2
KAEL 101939Z AUTO 34008KT 10SM OVC018 M01/M06 A3000 RMK AO2
KAEL 101919Z AUTO 32010KT 10SM OVC018 M01/M06 A3000 RMK AO2
KAEL 101859Z AUTO 32009KT 10SM OVC018 M01/M06 A3000 RMK AO2
KAEL 101839Z AUTO 30008G15KT 10SM OVC016 M01/M06 A2999 RMK AO2
KAEL 101819Z AUTO 33009G16KT 10SM OVC016 M01/M06 A2999 RMK AO2
KAEL 101800Z AUTO 33007KT 10SM BKN016 M01/M06 A2998 RMK AO2
KAEL 101739Z AUTO 33008KT 10SM SCT016 M01/M06 A2998 RMK AO2
KAEL 101719Z AUTO 34008G16KT 10SM SCT016 M01/M06 A2998 RMK AO2
KAEL 101659Z AUTO 34008KT 310V000 10SM SCT020 M02/M06 A2998 RMK AO2
KAEL 101639Z AUTO 34009G15KT 10SM BKN020 M02/M06 A2999 RMK AO2
KAEL 101619Z AUTO 33008KT 10SM OVC020 M02/M06 A2998 RMK AO2
KAEL 101559Z AUTO 33008G15KT 10SM OVC020 M02/M06 A2996 RMK AO2
KAEL 101539Z AUTO 33008G14KT 10SM BKN020 M02/M06 A2995 RMK AO2
KAEL 101519Z AUTO 33012G19KT 10SM CLR M02/M06 A2995 RMK AO2
KAEL 101459Z AUTO 32010G17KT 10SM CLR M02/M06 A2994 RMK AO2
KAEL 101439Z AUTO 32007G15KT 10SM CLR M03/M06 A2993 RMK AO2
KAEL 101419Z AUTO 32011G17KT 10SM CLR M03/M06 A2992 RMK AO2
KAEL 101359Z AUTO 33008G15KT 10SM CLR M03/M06 A2990 RMK AO2
KAEL 101341Z AUTO 33008G14KT 10SM CLR M03/M06 A2989 RMK AO2
KAEL 101319Z AUTO 33010G16KT 10SM CLR M02/M06 A2989 RMK AO2
KAEL 101259Z AUTO 33009G14KT 10SM CLR M02/M06 A2988 RMK AO2
KAEL 101239Z AUTO 33011G16KT 10SM CLR M02/M06 A2988 RMK AO2
KAEL 101219Z AUTO 32009G17KT 10SM CLR M02/M06 A2987 RMK AO2
KAEL 101159Z AUTO 32011G17KT 10SM CLR M02/M06 A2986 RMK AO2
KAEL 101139Z AUTO 32010G15KT 10SM CLR M03/M06 A2985 RMK AO2
KAEL 101119Z AUTO 31010G17KT 10SM CLR M03/M06 A2983 RMK AO2
KAEL 101059Z AUTO 30009KT 10SM CLR M03/M07 A2983 RMK AO2